Key West Nas, Boca Chica Field, Airport Key West US
ICAO: KNQX
IATA: NQX
Category: Medium
Scheduled Services: No

Elevation: 6 ft
TransAlt. 18000 ft.

Airport Communications:
APP DEP:119.25
ATIS:27.72
CLNC DEL:121.2
GND:121.7
BASE OPS:33.8
PMSV METRO:34.46
TWR:126.1

KNQX Zoom In..

If Map Doesn't Load, Click Here

Runways:

(A) RW 03 length 7002 ft width 150 ft
---- / hdg 34

(B) RW 07 length 10001 ft width 200 ft
---- / hdg 75

(C) RW 13 length 7001 ft width 150 ft
---- / hdg 133

(D) RW 21 length 7002 ft width 150 ft
---- / hdg 214

(E) RW 25 length 10001 ft width 200 ft
---- / hdg 255

(F) RW 31 length 7001 ft width 150 ft
---- / hdg 313

Location; KNQX
Day. 26 / Time. 10.04 Zulu
* Altimeter: 30.01
* Temperature: 29° c. 84.2°f.
* Wind from: 100° Speed 09 kn.
Dewpoint: 24° c.
Visibility: 10 Statute Miles.
Clouds: Few 2400 ft.
Clouds: Few 2000 ft.

KNQX 261004Z 10009KT 10SM FEW024 FEW200 29/24 A3001 RMK T02890244


Wind From 100°
Speed 09 kn.

 
 
jpsmedia.com for Web Design worldairports.se 2018   terms of use